sensor_id;sensor_type;location;lat;lon;timestamp;pressure;altitude;pressure_sealevel;temperature;humidity
21960;BME280;11144;43.030;25.108;2022-09-02T00:00:26;98974.09;;;21.34;100.00
21960;BME280;11144;43.030;25.108;2022-09-02T00:02:00;98971.28;;;21.35;100.00
21960;BME280;11144;43.030;25.108;2022-09-02T00:03:34;98966.50;;;21.39;100.00
21960;BME280;11144;43.030;25.108;2022-09-02T00:05:07;98971.16;;;21.37;100.00
21960;BME280;11144;43.030;25.108;2022-09-02T00:06:41;98968.47;;;21.37;100.00
21960;BME280;11144;43.030;25.108;2022-09-02T00:08:15;98968.47;;;21.37;100.00
21960;BME280;11144;43.030;25.108;2022-09-02T00:09:47;98961.66;;;21.33;100.00
21960;BME280;11144;43.030;25.108;2022-09-02T00:11:24;98964.47;;;21.31;100.00
21960;BME280;11144;43.030;25.108;2022-09-02T00:12:59;98957.50;;;21.29;100.00
21960;BME280;11144;43.030;25.108;2022-09-02T00:14:34;98958.38;;;21.29;100.00
21960;BME280;11144;43.030;25.108;2022-09-02T00:16:08;98948.25;;;21.22;100.00
21960;BME280;11144;43.030;25.108;2022-09-02T00:17:43;98946.94;;;21.16;100.00
21960;BME280;11144;43.030;25.108;2022-09-02T00:19:17;98954.44;;;21.13;100.00
21960;BME280;11144;43.030;25.108;2022-09-02T00:20:52;98953.81;;;21.09;100.00
21960;BME280;11144;43.030;25.108;2022-09-02T00:22:25;98956.63;;;21.08;100.00
21960;BME280;11144;43.030;25.108;2022-09-02T00:23:58;98960.31;;;21.07;100.00
21960;BME280;11144;43.030;25.108;2022-09-02T00:25:32;98954.81;;;21.08;100.00
21960;BME280;11144;43.030;25.108;2022-09-02T00:27:04;98952.50;;;21.04;100.00
21960;BME280;11144;43.030;25.108;2022-09-02T00:28:38;98947.16;;;20.93;100.00
21960;BME280;11144;43.030;25.108;2022-09-02T00:30:20;98957.56;;;20.86;100.00
21960;BME280;11144;43.030;25.108;2022-09-02T00:31:54;98951.06;;;20.89;100.00
21960;BME280;11144;43.030;25.108;2022-09-02T00:33:28;98958.13;;;20.90;100.00
21960;BME280;11144;43.030;25.108;2022-09-02T00:35:03;98949.38;;;20.88;100.00
21960;BME280;11144;43.030;25.108;2022-09-02T00:36:37;98949.13;;;20.91;100.00
21960;BME280;11144;43.030;25.108;2022-09-02T00:38:10;98949.13;;;20.91;100.00
21960;BME280;11144;43.030;25.108;2022-09-02T00:39:44;98945.44;;;20.92;100.00
21960;BME280;11144;43.030;25.108;2022-09-02T00:41:20;98949.84;;;20.93;100.00
21960;BME280;11144;43.030;25.108;2022-09-02T00:42:54;98950.59;;;20.95;100.00
21960;BME280;11144;43.030;25.108;2022-09-02T00:44:26;98952.53;;;20.93;100.00
21960;BME280;11144;43.030;25.108;2022-09-02T00:46:00;98955.72;;;20.98;100.00
21960;BME280;11144;43.030;25.108;2022-09-02T00:47:34;98950.34;;;20.98;100.00
21960;BME280;11144;43.030;25.108;2022-09-02T00:49:13;98955.72;;;20.98;100.00
21960;BME280;11144;43.030;25.108;2022-09-02T00:50:48;98956.03;;;21.04;100.00
21960;BME280;11144;43.030;25.108;2022-09-02T00:52:26;98955.78;;;21.07;100.00
21960;BME280;11144;43.030;25.108;2022-09-02T00:54:02;98954.69;;;21.10;100.00
21960;BME280;11144;43.030;25.108;2022-09-02T00:55:40;98951.72;;;21.13;100.00
21960;BME280;11144;43.030;25.108;2022-09-02T00:57:17;98959.81;;;21.13;100.00
21960;BME280;11144;43.030;25.108;2022-09-02T00:58:53;98973.72;;;21.18;100.00
21960;BME280;11144;43.030;25.108;2022-09-02T01:00:28;98978.09;;;21.19;100.00
21960;BME280;11144;43.030;25.108;2022-09-02T01:02:05;98980.78;;;21.19;100.00
21960;BME280;11144;43.030;25.108;2022-09-02T01:03:40;98980.19;;;21.15;100.00
21960;BME280;11144;43.030;25.108;2022-09-02T01:05:17;98986.44;;;21.16;100.00
21960;BME280;11144;43.030;25.108;2022-09-02T01:06:50;98986.69;;;21.13;100.00
21960;BME280;11144;43.030;25.108;2022-09-02T01:08:27;98985.75;;;21.03;100.00
21960;BME280;11144;43.030;25.108;2022-09-02T01:10:02;98999.41;;;21.11;100.00
21960;BME280;11144;43.030;25.108;2022-09-02T01:11:39;98994.66;;;21.14;100.00
21960;BME280;11144;43.030;25.108;2022-09-02T01:13:16;98986.44;;;21.16;100.00
21960;BME280;11144;43.030;25.108;2022-09-02T01:14:49;98995.22;;;21.18;100.00
21960;BME280;11144;43.030;25.108;2022-09-02T01:16:26;98986.16;;;21.19;100.00
21960;BME280;11144;43.030;25.108;2022-09-02T01:17:59;98991.53;;;21.19;100.00
21960;BME280;11144;43.030;25.108;2022-09-02T01:19:36;98981.06;;;21.16;100.00
21960;BME280;11144;43.030;25.108;2022-09-02T01:21:12;98983.09;;;21.23;100.00
21960;BME280;11144;43.030;25.108;2022-09-02T01:22:47;98972.00;;;21.17;100.00
21960;BME280;11144;43.030;25.108;2022-09-02T01:24:27;98989.06;;;21.27;100.00
21960;BME280;11144;43.030;25.108;2022-09-02T01:26:02;98983.66;;;21.27;100.00
21960;BME280;11144;43.030;25.108;2022-09-02T01:27:36;98979.16;;;21.27;100.00
21960;BME280;11144;43.030;25.108;2022-09-02T01:29:09;98976.84;;;21.23;100.00
21960;BME280;11144;43.030;25.108;2022-09-02T01:30:46;98984.22;;;21.21;100.00
21960;BME280;11144;43.030;25.108;2022-09-02T01:32:21;98977.63;;;21.14;100.00
21960;BME280;11144;43.030;25.108;2022-09-02T01:33:55;98977.63;;;21.14;100.00
21960;BME280;11144;43.030;25.108;2022-09-02T01:35:29;98983.53;;;21.08;100.00
21960;BME280;11144;43.030;25.108;2022-09-02T01:37:02;98986.94;;;21.10;100.00
21960;BME280;11144;43.030;25.108;2022-09-02T01:38:37;98983.53;;;21.08;100.00
21960;BME280;11144;43.030;25.108;2022-09-02T01:40:14;98973.31;;;21.02;100.00
21960;BME280;11144;43.030;25.108;2022-09-02T01:41:47;98966.47;;;20.98;100.00
21960;BME280;11144;43.030;25.108;2022-09-02T01:43:23;98974.53;;;20.98;100.00
21960;BME280;11144;43.030;25.108;2022-09-02T01:44:57;98971.84;;;20.98;100.00
21960;BME280;11144;43.030;25.108;2022-09-02T01:46:30;98979.94;;;20.87;100.00
21960;BME280;11144;43.030;25.108;2022-09-02T01:48:05;98980.88;;;20.86;100.00
21960;BME280;11144;43.030;25.108;2022-09-02T01:49:39;98983.56;;;20.86;100.00
21960;BME280;11144;43.030;25.108;2022-09-02T01:51:16;98987.25;;;20.85;100.00
21960;BME280;11144;43.030;25.108;2022-09-02T01:52:50;98983.25;;;20.79;100.00
21960;BME280;11144;43.030;25.108;2022-09-02T01:54:24;98997.75;;;20.88;100.00
21960;BME280;11144;43.030;25.108;2022-09-02T01:55:58;98999.00;;;20.84;100.00
21960;BME280;11144;43.030;25.108;2022-09-02T01:57:35;98995.69;;;20.80;100.00
21960;BME280;11144;43.030;25.108;2022-09-02T01:59:10;98994.84;;;20.80;100.00
21960;BME280;11144;43.030;25.108;2022-09-02T02:00:48;98991.19;;;20.81;100.00
21960;BME280;11144;43.030;25.108;2022-09-02T02:02:22;98990.31;;;20.80;100.00
21960;BME280;11144;43.030;25.108;2022-09-02T02:03:56;98985.22;;;20.77;100.00
21960;BME280;11144;43.030;25.108;2022-09-02T02:05:29;98977.28;;;20.76;100.00
21960;BME280;11144;43.030;25.108;2022-09-02T02:07:04;98989.72;;;20.77;100.00
21960;BME280;11144;43.030;25.108;2022-09-02T02:08:38;98982.16;;;20.71;100.00
21960;BME280;11144;43.030;25.108;2022-09-02T02:10:17;98985.09;;;20.68;100.00
21960;BME280;11144;43.030;25.108;2022-09-02T02:11:53;98976.31;;;20.66;100.00
21960;BME280;11144;43.030;25.108;2022-09-02T02:13:27;98977.66;;;20.60;100.00
21960;BME280;11144;43.030;25.108;2022-09-02T02:15:00;98965.00;;;20.51;100.00
21960;BME280;11144;43.030;25.108;2022-09-02T02:16:34;98954.00;;;20.43;100.00
21960;BME280;11144;43.030;25.108;2022-09-02T02:18:07;98966.59;;;20.43;100.00
21960;BME280;11144;43.030;25.108;2022-09-02T02:19:40;98960.03;;;20.36;100.00
21960;BME280;11144;43.030;25.108;2022-09-02T02:21:14;98964.66;;;20.34;100.00
21960;BME280;11144;43.030;25.108;2022-09-02T02:22:48;98959.28;;;20.34;100.00
21960;BME280;11144;43.030;25.108;2022-09-02T02:24:22;98956.84;;;20.31;100.00
21960;BME280;11144;43.030;25.108;2022-09-02T02:25:56;98952.44;;;20.30;100.00
21960;BME280;11144;43.030;25.108;2022-09-02T02:27:29;98949.28;;;20.25;100.00
21960;BME280;11144;43.030;25.108;2022-09-02T02:29:07;98953.78;;;20.24;100.00
21960;BME280;11144;43.030;25.108;2022-09-02T02:30:42;98948.06;;;20.18;100.00
21960;BME280;11144;43.030;25.108;2022-09-02T02:32:16;98945.75;;;20.13;100.00
21960;BME280;11144;43.030;25.108;2022-09-02T02:33:49;98934.63;;;20.07;100.00
21960;BME280;11144;43.030;25.108;2022-09-02T02:35:23;98947.59;;;20.13;100.00
21960;BME280;11144;43.030;25.108;2022-09-02T02:36:57;98955.88;;;20.10;100.00
21960;BME280;11144;43.030;25.108;2022-09-02T02:38:31;98961.03;;;20.13;100.00
21960;BME280;11144;43.030;25.108;2022-09-02T02:40:06;98955.38;;;20.16;100.00
21960;BME280;11144;43.030;25.108;2022-09-02T02:41:41;98946.38;;;20.17;100.00
21960;BME280;11144;43.030;25.108;2022-09-02T02:43:16;98946.50;;;20.15;100.00
21960;BME280;11144;43.030;25.108;2022-09-02T02:44:49;98934.31;;;20.11;100.00
21960;BME280;11144;43.030;25.108;2022-09-02T02:46:22;98947.34;;;20.16;100.00
21960;BME280;11144;43.030;25.108;2022-09-02T02:47:56;98945.63;;;20.15;100.00
21960;BME280;11144;43.030;25.108;2022-09-02T02:49:30;98941.00;;;20.17;100.00
21960;BME280;11144;43.030;25.108;2022-09-02T02:51:05;98938.31;;;20.17;100.00
21960;BME280;11144;43.030;25.108;2022-09-02T02:52:39;98936.13;;;20.11;100.00
21960;BME280;11144;43.030;25.108;2022-09-02T02:54:13;98954.66;;;20.14;100.00
21960;BME280;11144;43.030;25.108;2022-09-02T02:55:45;98949.53;;;20.11;100.00
21960;BME280;11144;43.030;25.108;2022-09-02T02:57:23;98952.97;;;20.13;100.00
21960;BME280;11144;43.030;25.108;2022-09-02T02:58:58;98939.56;;;20.13;100.00
21960;BME280;11144;43.030;25.108;2022-09-02T03:00:36;98946.63;;;20.14;100.00
21960;BME280;11144;43.030;25.108;2022-09-02T03:02:09;98941.50;;;20.11;100.00
21960;BME280;11144;43.030;25.108;2022-09-02T03:03:42;98943.19;;;20.12;100.00
21960;BME280;11144;43.030;25.108;2022-09-02T03:05:16;98953.09;;;20.11;100.00
21960;BME280;11144;43.030;25.108;2022-09-02T03:06:50;98952.22;;;20.11;100.00
21960;BME280;11144;43.030;25.108;2022-09-02T03:08:24;98956.63;;;20.12;100.00
21960;BME280;11144;43.030;25.108;2022-09-02T03:09:57;98968.09;;;20.14;100.00
21960;BME280;11144;43.030;25.108;2022-09-02T03:11:31;98959.50;;;20.08;100.00
21960;BME280;11144;43.030;25.108;2022-09-02T03:13:07;98962.97;;;20.11;100.00
21960;BME280;11144;43.030;25.108;2022-09-02T03:14:41;98957.81;;;20.08;100.00
21960;BME280;11144;43.030;25.108;2022-09-02T03:16:15;98962.00;;;20.12;100.00
21960;BME280;11144;43.030;25.108;2022-09-02T03:17:51;98968.09;;;20.14;100.00
21960;BME280;11144;43.030;25.108;2022-09-02T03:19:25;98961.75;;;20.15;100.00
21960;BME280;11144;43.030;25.108;2022-09-02T03:20:59;98960.75;;;20.16;100.00
21960;BME280;11144;43.030;25.108;2022-09-02T03:22:33;98971.25;;;20.19;100.00
21960;BME280;11144;43.030;25.108;2022-09-02T03:24:08;98972.97;;;20.20;100.00
21960;BME280;11144;43.030;25.108;2022-09-02T03:25:43;98973.81;;;20.20;100.00
21960;BME280;11144;43.030;25.108;2022-09-02T03:27:38;98976.16;;;20.25;100.00
21960;BME280;11144;43.030;25.108;2022-09-02T03:29:13;98967.09;;;20.26;100.00
21960;BME280;11144;43.030;25.108;2022-09-02T03:30:47;98974.69;;;20.32;100.00
21960;BME280;11144;43.030;25.108;2022-09-02T03:32:21;98975.38;;;20.34;100.00
21960;BME280;11144;43.030;25.108;2022-09-02T03:34:00;98972.81;;;20.32;100.00
21960;BME280;11144;43.030;25.108;2022-09-02T03:35:39;98973.44;;;20.36;100.00
21960;BME280;11144;43.030;25.108;2022-09-02T03:37:13;98990.03;;;20.41;100.00
21960;BME280;11144;43.030;25.108;2022-09-02T03:38:47;98984.66;;;20.41;100.00
21960;BME280;11144;43.030;25.108;2022-09-02T03:40:24;98989.91;;;20.42;100.00
21960;BME280;11144;43.030;25.108;2022-09-02T03:41:58;98997.84;;;20.44;100.00
21960;BME280;11144;43.030;25.108;2022-09-02T03:43:32;99008.34;;;20.47;100.00
21960;BME280;11144;43.030;25.108;2022-09-02T03:45:09;98991.38;;;20.46;100.00
21960;BME280;11144;43.030;25.108;2022-09-02T03:46:42;98995.91;;;20.46;100.00
21960;BME280;11144;43.030;25.108;2022-09-02T03:48:15;98995.91;;;20.46;100.00
21960;BME280;11144;43.030;25.108;2022-09-02T03:49:49;99005.16;;;20.42;100.00
21960;BME280;11144;43.030;25.108;2022-09-02T03:51:23;98996.41;;;20.40;100.00
21960;BME280;11144;43.030;25.108;2022-09-02T03:52:58;98994.94;;;20.36;100.00
21960;BME280;11144;43.030;25.108;2022-09-02T03:54:32;99000.06;;;20.39;100.00
21960;BME280;11144;43.030;25.108;2022-09-02T03:56:07;99000.78;;;20.30;100.00
21960;BME280;11144;43.030;25.108;2022-09-02T03:57:44;99001.41;;;20.33;100.00
21960;BME280;11144;43.030;25.108;2022-09-02T03:59:18;99002.25;;;20.34;100.00
21960;BME280;11144;43.030;25.108;2022-09-02T04:00:53;99009.09;;;20.38;100.00
21960;BME280;11144;43.030;25.108;2022-09-02T04:02:28;99009.09;;;20.38;100.00
21960;BME280;11144;43.030;25.108;2022-09-02T04:04:04;99007.16;;;20.40;100.00
21960;BME280;11144;43.030;25.108;2022-09-02T04:05:39;99020.47;;;20.41;100.00
21960;BME280;11144;43.030;25.108;2022-09-02T04:07:12;99031.19;;;20.41;100.00
21960;BME280;11144;43.030;25.108;2022-09-02T04:08:47;99030.56;;;20.38;100.00
21960;BME280;11144;43.030;25.108;2022-09-02T04:10:21;99026.94;;;20.39;100.00
21960;BME280;11144;43.030;25.108;2022-09-02T04:11:55;99025.47;;;20.46;100.00
21960;BME280;11144;43.030;25.108;2022-09-02T04:13:28;99038.91;;;20.46;100.00
21960;BME280;11144;43.030;25.108;2022-09-02T04:15:02;99035.47;;;20.44;100.00
21960;BME280;11144;43.030;25.108;2022-09-02T04:16:37;99033.75;;;20.43;100.00
21960;BME280;11144;43.030;25.108;2022-09-02T04:18:13;99029.84;;;20.36;100.00
21960;BME280;11144;43.030;25.108;2022-09-02T04:19:46;99037.91;;;20.36;100.00
21960;BME280;11144;43.030;25.108;2022-09-02T04:21:21;99038.91;;;20.35;100.00
21960;BME280;11144;43.030;25.108;2022-09-02T04:22:54;99046.97;;;20.35;100.00
21960;BME280;11144;43.030;25.108;2022-09-02T04:24:28;99041.59;;;20.35;100.00
21960;BME280;11144;43.030;25.108;2022-09-02T04:26:04;99046.09;;;20.34;100.00
21960;BME280;11144;43.030;25.108;2022-09-02T04:27:38;99046.44;;;20.41;100.00
21960;BME280;11144;43.030;25.108;2022-09-02T04:29:12;99046.44;;;20.41;100.00
21960;BME280;11144;43.030;25.108;2022-09-02T04:30:47;99043.66;;;20.42;100.00
21960;BME280;11144;43.030;25.108;2022-09-02T04:32:21;99044.28;;;20.46;100.00
21960;BME280;11144;43.030;25.108;2022-09-02T04:33:57;99045.09;;;20.46;100.00
21960;BME280;11144;43.030;25.108;2022-09-02T04:35:31;99048.53;;;20.48;100.00
21960;BME280;11144;43.030;25.108;2022-09-02T04:37:06;99052.81;;;20.51;100.00
21960;BME280;11144;43.030;25.108;2022-09-02T04:38:40;99058.31;;;20.49;100.00
21960;BME280;11144;43.030;25.108;2022-09-02T04:40:14;99056.22;;;20.53;100.00
21960;BME280;11144;43.030;25.108;2022-09-02T04:41:48;99059.88;;;20.52;100.00
21960;BME280;11144;43.030;25.108;2022-09-02T04:43:21;99056.72;;;20.47;100.00
21960;BME280;11144;43.030;25.108;2022-09-02T04:44:56;99058.66;;;20.45;100.00
21960;BME280;11144;43.030;25.108;2022-09-02T04:46:31;99051.59;;;20.44;100.00
21960;BME280;11144;43.030;25.108;2022-09-02T04:48:10;99039.84;;;20.34;100.00
21960;BME280;11144;43.030;25.108;2022-09-02T04:49:45;99054.50;;;20.41;100.00
21960;BME280;11144;43.030;25.108;2022-09-02T04:51:20;99051.47;;;20.34;100.00
21960;BME280;11144;43.030;25.108;2022-09-02T04:52:56;99051.81;;;20.41;100.00
21960;BME280;11144;43.030;25.108;2022-09-02T04:54:30;99033.53;;;20.35;100.00
21960;BME280;11144;43.030;25.108;2022-09-02T04:56:07;99041.31;;;20.38;100.00
21960;BME280;11144;43.030;25.108;2022-09-02T04:57:41;99029.13;;;20.34;100.00
21960;BME280;11144;43.030;25.108;2022-09-02T04:59:14;99029.13;;;20.34;100.00
21960;BME280;11144;43.030;25.108;2022-09-02T05:00:56;99011.53;;;20.30;100.00
21960;BME280;11144;43.030;25.108;2022-09-02T05:02:30;99022.78;;;20.35;100.00
21960;BME280;11144;43.030;25.108;2022-09-02T05:04:06;99023.16;;;20.30;100.00
21960;BME280;11144;43.030;25.108;2022-09-02T05:05:45;99030.84;;;20.35;100.00
21960;BME280;11144;43.030;25.108;2022-09-02T05:07:19;99022.91;;;20.33;100.00
21960;BME280;11144;43.030;25.108;2022-09-02T05:08:54;99024.38;;;20.37;100.00
21960;BME280;11144;43.030;25.108;2022-09-02T05:10:29;99026.31;;;20.35;100.00
21960;BME280;11144;43.030;25.108;2022-09-02T05:12:04;99039.13;;;20.43;100.00
21960;BME280;11144;43.030;25.108;2022-09-02T05:13:50;99038.16;;;20.44;100.00
21960;BME280;11144;43.030;25.108;2022-09-02T05:15:25;99029.84;;;20.47;100.00
21960;BME280;11144;43.030;25.108;2022-09-02T05:16:59;99033.00;;;20.52;100.00
21960;BME280;11144;43.030;25.108;2022-09-02T05:18:40;99022.25;;;20.52;100.00
21960;BME280;11144;43.030;25.108;2022-09-02T05:20:16;99026.91;;;20.61;100.00
21960;BME280;11144;43.030;25.108;2022-09-02T05:21:51;99021.03;;;20.56;100.00
21960;BME280;11144;43.030;25.108;2022-09-02T05:23:34;99020.56;;;20.51;100.00
21960;BME280;11144;43.030;25.108;2022-09-02T05:25:09;99043.03;;;20.61;100.00
21960;BME280;11144;43.030;25.108;2022-09-02T05:26:43;99034.22;;;20.59;100.00
21960;BME280;11144;43.030;25.108;2022-09-02T05:28:17;99048.41;;;20.61;100.00
21960;BME280;11144;43.030;25.108;2022-09-02T05:29:53;99050.34;;;20.59;100.00
21960;BME280;11144;43.030;25.108;2022-09-02T05:31:28;99046.09;;;20.56;100.00
21960;BME280;11144;43.030;25.108;2022-09-02T05:33:02;99048.31;;;20.51;100.00
21960;BME280;11144;43.030;25.108;2022-09-02T05:34:36;99043.03;;;20.50;100.00
21960;BME280;11144;43.030;25.108;2022-09-02T05:36:13;99043.53;;;20.55;100.00
21960;BME280;11144;43.030;25.108;2022-09-02T05:37:47;99056.22;;;20.53;100.00
21960;BME280;11144;43.030;25.108;2022-09-02T05:39:20;99036.16;;;20.57;100.00
21960;BME280;11144;43.030;25.108;2022-09-02T05:40:54;99043.28;;;20.58;100.00
21960;BME280;11144;43.030;25.108;2022-09-02T05:42:28;99038.16;;;20.55;100.00
21960;BME280;11144;43.030;25.108;2022-09-02T05:44:03;99041.31;;;20.60;100.00
21960;BME280;11144;43.030;25.108;2022-09-02T05:45:38;99045.44;;;20.64;100.00
21960;BME280;11144;43.030;25.108;2022-09-02T05:47:12;99047.66;;;20.70;100.00
21960;BME280;11144;43.030;25.108;2022-09-02T05:48:46;99043.72;;;20.74;100.00
21960;BME280;11144;43.030;25.108;2022-09-02T05:50:47;99041.78;;;20.76;100.00
21960;BME280;11144;43.030;25.108;2022-09-02T05:52:24;99032.97;;;20.74;100.00
21960;BME280;11144;43.030;25.108;2022-09-02T05:53:59;99035.78;;;20.72;100.00
21960;BME280;11144;43.030;25.108;2022-09-02T05:55:32;99038.09;;;20.77;100.00
21960;BME280;11144;43.030;25.108;2022-09-02T05:57:07;99037.50;;;20.73;100.00
21960;BME280;11144;43.030;25.108;2022-09-02T05:58:44;99052.53;;;20.76;100.00
21960;BME280;11144;43.030;25.108;2022-09-02T06:00:17;99059.84;;;20.74;100.00
21960;BME280;11144;43.030;25.108;2022-09-02T06:01:59;99059.97;;;20.72;100.00
21960;BME280;11144;43.030;25.108;2022-09-02T06:03:32;99056.69;;;20.69;100.00
21960;BME280;11144;43.030;25.108;2022-09-02T06:05:08;99057.19;;;20.63;100.00
21960;BME280;11144;43.030;25.108;2022-09-02T06:06:47;99046.44;;;20.63;100.00
21960;BME280;11144;43.030;25.108;2022-09-02T06:08:23;99043.97;;;20.71;100.00
21960;BME280;11144;43.030;25.108;2022-09-02T06:09:57;99035.66;;;20.74;100.00
21960;BME280;11144;43.030;25.108;2022-09-02T06:11:31;99042.75;;;20.75;100.00
21960;BME280;11144;43.030;25.108;2022-09-02T06:13:04;99040.69;;;20.78;100.00
21960;BME280;11144;43.030;25.108;2022-09-02T06:14:39;99036.53;;;20.74;100.00
21960;BME280;11144;43.030;25.108;2022-09-02T06:16:17;99048.63;;;20.80;100.00
21960;BME280;11144;43.030;25.108;2022-09-02T06:17:52;99046.88;;;20.79;100.00
21960;BME280;11144;43.030;25.108;2022-09-02T06:19:31;99032.09;;;20.73;100.00
21960;BME280;11144;43.030;25.108;2022-09-02T06:21:06;99043.25;;;20.80;100.00
21960;BME280;11144;43.030;25.108;2022-09-02T06:22:43;99048.84;;;20.77;100.00
21960;BME280;11144;43.030;25.108;2022-09-02T06:24:20;99059.63;;;20.77;100.00
21960;BME280;11144;43.030;25.108;2022-09-02T06:25:54;99065.69;;;20.79;100.00
21960;BME280;11144;43.030;25.108;2022-09-02T06:27:26;99059.38;;;20.80;100.00
21960;BME280;11144;43.030;25.108;2022-09-02T06:29:00;99057.41;;;20.82;100.00
21960;BME280;11144;43.030;25.108;2022-09-02T06:30:36;99053.13;;;20.79;100.00
21960;BME280;11144;43.030;25.108;2022-09-02T06:32:10;99058.13;;;20.84;100.00
21960;BME280;11144;43.030;25.108;2022-09-02T06:33:44;99065.22;;;20.85;100.00
21960;BME280;11144;43.030;25.108;2022-09-02T06:35:21;99078.66;;;20.85;100.00
21960;BME280;11144;43.030;25.108;2022-09-02T06:36:54;99074.38;;;20.82;100.00
21960;BME280;11144;43.030;25.108;2022-09-02T06:38:29;99081.84;;;20.79;100.00
21960;BME280;11144;43.030;25.108;2022-09-02T06:40:04;99079.88;;;20.81;100.00
21960;BME280;11144;43.030;25.108;2022-09-02T06:41:40;99071.34;;;20.76;100.00
21960;BME280;11144;43.030;25.108;2022-09-02T06:43:16;99066.94;;;20.75;100.00
21960;BME280;11144;43.030;25.108;2022-09-02T06:45:14;99061.56;;;20.75;100.00
21960;BME280;11144;43.030;25.108;2022-09-02T06:46:53;99072.31;;;20.75;100.00
21960;BME280;11144;43.030;25.108;2022-09-02T06:48:27;99075.75;;;20.77;100.00
21960;BME280;11144;43.030;25.108;2022-09-02T06:50:00;99065.69;;;20.79;100.00
21960;BME280;11144;43.030;25.108;2022-09-02T06:51:36;99074.63;;;20.79;100.00
21960;BME280;11144;43.030;25.108;2022-09-02T06:53:11;99086.84;;;20.83;100.00
21960;BME280;11144;43.030;25.108;2022-09-02T06:54:44;99091.09;;;20.86;100.00
21960;BME280;11144;43.030;25.108;2022-09-02T06:56:21;99090.88;;;20.89;100.00
21960;BME280;11144;43.030;25.108;2022-09-02T06:57:55;99089.75;;;20.91;100.00
21960;BME280;11144;43.030;25.108;2022-09-02T06:59:29;99086.16;;;20.92;100.00
21960;BME280;11144;43.030;25.108;2022-09-02T07:01:03;99075.38;;;20.92;100.00
21960;BME280;11144;43.030;25.108;2022-09-02T07:02:37;99070.59;;;20.96;100.00
21960;BME280;11144;43.030;25.108;2022-09-02T07:04:12;99081.34;;;20.96;100.00
21960;BME280;11144;43.030;25.108;2022-09-02T07:06:04;99088.72;;;20.94;100.00
21960;BME280;11144;43.030;25.108;2022-09-02T07:07:42;99078.09;;;20.92;100.00
21960;BME280;11144;43.030;25.108;2022-09-02T07:09:21;99088.72;;;20.94;100.00
21960;BME280;11144;43.030;25.108;2022-09-02T07:10:55;99091.13;;;20.97;100.00
21960;BME280;11144;43.030;25.108;2022-09-02T07:12:30;99090.16;;;20.98;100.00
21960;BME280;11144;43.030;25.108;2022-09-02T07:14:10;99104.56;;;20.97;100.00
21960;BME280;11144;43.030;25.108;2022-09-02T07:15:43;99092.13;;;20.96;100.00
21960;BME280;11144;43.030;25.108;2022-09-02T07:17:17;99102.50;;;21.00;100.00
21960;BME280;11144;43.030;25.108;2022-09-02T07:18:58;99100.41;;;21.04;100.00
21960;BME280;11144;43.030;25.108;2022-09-02T07:20:32;99103.09;;;21.04;100.00
21960;BME280;11144;43.030;25.108;2022-09-02T07:22:07;99096.78;;;20.94;100.00
21960;BME280;11144;43.030;25.108;2022-09-02T07:23:45;99108.25;;;20.96;100.00
21960;BME280;11144;43.030;25.108;2022-09-02T07:25:19;99096.25;;;21.00;100.00
21960;BME280;11144;43.030;25.108;2022-09-02T07:26:53;99095.28;;;21.01;100.00
21960;BME280;11144;43.030;25.108;2022-09-02T07:28:29;99091.84;;;21.10;100.00
21960;BME280;11144;43.030;25.108;2022-09-02T07:30:03;99085.47;;;21.11;100.00
21960;BME280;11144;43.030;25.108;2022-09-02T07:31:43;99094.03;;;21.16;100.00
21960;BME280;11144;43.030;25.108;2022-09-02T07:33:19;99097.94;;;21.12;100.00
21960;BME280;11144;43.030;25.108;2022-09-02T07:34:53;99085.72;;;21.08;100.00
21960;BME280;11144;43.030;25.108;2022-09-02T07:36:27;99093.78;;;21.08;100.00
21960;BME280;11144;43.030;25.108;2022-09-02T07:38:02;99086.94;;;21.15;100.00
21960;BME280;11144;43.030;25.108;2022-09-02T07:39:36;99081.53;;;21.15;100.00
21960;BME280;11144;43.030;25.108;2022-09-02T07:41:09;99079.72;;;21.15;100.00
21960;BME280;11144;43.030;25.108;2022-09-02T07:42:44;99077.63;;;21.19;100.00
21960;BME280;11144;43.030;25.108;2022-09-02T07:44:20;99079.06;;;21.23;100.00
21960;BME280;11144;43.030;25.108;2022-09-02T07:45:56;99084.22;;;21.26;100.00
21960;BME280;11144;43.030;25.108;2022-09-02T07:47:32;99085.91;;;21.27;100.00
21960;BME280;11144;43.030;25.108;2022-09-02T07:49:10;99084.44;;;21.23;100.00
21960;BME280;11144;43.030;25.108;2022-09-02T07:50:45;99097.53;;;21.27;100.00
21960;BME280;11144;43.030;25.108;2022-09-02T07:52:21;99096.66;;;21.27;100.00
21960;BME280;11144;43.030;25.108;2022-09-02T07:53:55;99087.88;;;21.25;100.00
21960;BME280;11144;43.030;25.108;2022-09-02T07:55:28;99096.66;;;21.27;100.00
21960;BME280;11144;43.030;25.108;2022-09-02T07:57:04;99085.91;;;21.27;100.00
21960;BME280;11144;43.030;25.108;2022-09-02T07:58:38;99083.97;;;21.29;100.00
21960;BME280;11144;43.030;25.108;2022-09-02T08:00:14;99086.78;;;21.27;100.00
21960;BME280;11144;43.030;25.108;2022-09-02T08:01:52;99079.94;;;21.23;100.00
21960;BME280;11144;43.030;25.108;2022-09-02T08:03:27;99095.91;;;21.36;100.00
21960;BME280;11144;43.030;25.108;2022-09-02T08:05:02;99095.66;;;21.39;100.00
21960;BME280;11144;43.030;25.108;2022-09-02T08:06:36;99099.81;;;21.43;100.00
21960;BME280;11144;43.030;25.108;2022-09-02T08:08:09;99097.13;;;21.43;100.00
21960;BME280;11144;43.030;25.108;2022-09-02T08:09:44;99101.47;;;21.55;100.00
21960;BME280;11144;43.030;25.108;2022-09-02T08:11:17;99100.44;;;21.67;100.00